グラスゴー の空港の天気 - METARとTAF

グラスゴー国際空港 ( EGPF / GLA ) - イギリス グラスゴー
飛行場実況気象(Metar)
観測時間02/05 20:50 GMT (02/05 20:50 UTC)
風向・風速南南西 3m/s
視程10km以上
天気現象
全天を覆う雲 雲底高度 910m
気温6℃
湿度76%
気圧1042hPa
METAREGPF 052050Z AUTO 21005KT 9999 OVC030 06/02 Q1042
過去の天気等 Google飛行場航空写真 Wunderground天気予報

過去48時間のMETAR

飛行場予報(TAF)
発表時間: 2/05 16:55 GMT (2/05 16:55 UTC)
予報対象時間: 5日18時 GMT ~ 6日18時 GMT
風向・風速南南西 5m/s
視程10km以上
全天の4割程度の雲 雲底高度 610m
6日8時 GMT ~ 6日14時 GMT に 確率 30% で一時的に
視程6000m
天気現象弱い雨霧雨
全天の8割程度の雲 雲底高度 370m
TAF EGPF 051655Z 0518/0618 21009KT 9999 SCT020
PROB30 TEMPO 0608/0614 6000 -RADZ BKN012